Time;durP1;ratioP1;P1;durP2;ratioP2;P2;SDS_P1;SDS_P2;PMS_P1;PMS_P2;Temp;Humidity;BMP_temperature;BMP_pressure;BME280_temperature;BME280_humidity;BME280_pressure;Samples;Min_cycle;Max_cycle;Signal;HPM_P1;HPM_P2
2022/04/10 00:00:42;;;;;;;3.55;1.50;;;;;;;;;;4926626;29;20208;-61
2022/04/10 00:03:07;;;;;;;4.13;1.60;;;;;;;;;;4929634;29;20120;-61
2022/04/10 00:05:34;;;;;;;6.63;1.48;;;;;;;;;;4926562;29;20032;-61
2022/04/10 00:07:59;;;;;;;4.32;1.73;;;;;;;;;;4924021;29;20277;-63
2022/04/10 00:10:25;;;;;;;3.78;1.48;;;;;;;;;;4928386;29;20051;-59
2022/04/10 00:12:50;;;;;;;1.88;1.35;;;;;;;;;;4924825;29;20328;-63
2022/04/10 00:15:16;;;;;;;5.22;1.45;;;;;;;;;;4926646;29;20209;-63
2022/04/10 00:17:41;;;;;;;3.13;1.55;;;;;;;;;;4929539;29;20024;-61
2022/04/10 00:20:09;;;;;;;3.70;1.33;;;;;;;;;;4924887;29;20036;-62
2022/04/10 00:22:42;;;;;;;3.03;1.70;;;;;;;;;;4927670;29;20201;-53
2022/04/10 00:25:12;;;;;;;4.03;1.60;;;;;;;;;;4928047;29;20063;-56
2022/04/10 00:27:40;;;;;;;4.63;1.42;;;;;;;;;;4925311;29;20273;-54
2022/04/10 00:30:06;;;;;;;2.08;1.35;;;;;;;;;;4924256;29;20043;-53
2022/04/10 00:32:32;;;;;;;2.58;1.42;;;;;;;;;;4924500;29;20036;-54
2022/04/10 00:34:57;;;;;;;2.85;1.60;;;;;;;;;;4925476;29;20051;-51
2022/04/10 00:37:23;;;;;;;3.33;1.60;;;;;;;;;;4926276;29;20036;-56
2022/04/10 00:39:48;;;;;;;3.70;1.40;;;;;;;;;;4926198;29;20270;-55
2022/04/10 00:42:14;;;;;;;2.97;1.52;;;;;;;;;;4928586;29;20032;-56
2022/04/10 00:44:39;;;;;;;6.15;2.13;;;;;;;;;;4924483;29;20261;-55
2022/04/10 00:47:05;;;;;;;4.35;1.70;;;;;;;;;;4924797;29;20044;-51
2022/04/10 00:49:31;;;;;;;3.67;1.67;;;;;;;;;;4930702;29;20321;-56
2022/04/10 00:51:57;;;;;;;3.42;1.65;;;;;;;;;;4926342;29;20034;-55
2022/04/10 00:54:26;;;;;;;3.22;1.70;;;;;;;;;;4924270;29;20035;-54
2022/04/10 00:56:53;;;;;;;5.03;1.80;;;;;;;;;;4923246;29;20032;-55
2022/04/10 00:59:19;;;;;;;4.68;1.30;;;;;;;;;;4925544;29;20044;-53
2022/04/10 01:01:45;;;;;;;4.60;1.70;;;;;;;;;;4926102;29;20305;-61
2022/04/10 01:04:16;;;;;;;4.45;1.60;;;;;;;;;;4928270;29;20036;-60
2022/04/10 01:06:43;;;;;;;4.30;1.65;;;;;;;;;;4924562;29;20042;-61
2022/04/10 01:09:09;;;;;;;3.85;1.60;;;;;;;;;;4924521;29;20063;-60
2022/04/10 01:11:35;;;;;;;3.92;2.00;;;;;;;;;;4927709;29;20042;-62
2022/04/10 01:14:01;;;;;;;5.47;1.75;;;;;;;;;;4925464;29;20028;-62
2022/04/10 01:16:28;;;;;;;3.08;1.60;;;;;;;;;;4926935;29;20420;-62
2022/04/10 01:18:55;;;;;;;3.53;1.73;;;;;;;;;;4925193;29;20035;-61
2022/04/10 01:21:26;;;;;;;3.83;2.10;;;;;;;;;;4926521;29;20039;-61
2022/04/10 01:23:56;;;;;;;5.65;2.15;;;;;;;;;;4922168;29;20027;-61
2022/04/10 01:26:23;;;;;;;4.90;1.90;;;;;;;;;;4928504;29;20024;-59
2022/04/10 01:28:55;;;;;;;3.58;1.73;;;;;;;;;;4926929;29;20079;-57
2022/04/10 01:31:21;;;;;;;2.13;1.50;;;;;;;;;;4926675;29;20204;-59
2022/04/10 01:33:47;;;;;;;2.40;1.65;;;;;;;;;;4923496;29;20035;-58
2022/04/10 01:36:13;;;;;;;2.95;2.05;;;;;;;;;;4924644;29;20040;-59
2022/04/10 01:38:39;;;;;;;3.05;2.03;;;;;;;;;;4926181;29;20123;-59
2022/04/10 01:41:04;;;;;;;2.60;1.70;;;;;;;;;;4926803;29;20047;-60
2022/04/10 01:43:30;;;;;;;2.97;1.98;;;;;;;;;;4923809;29;20044;-58
2022/04/10 01:45:56;;;;;;;2.13;1.75;;;;;;;;;;4922640;29;20548;-60
2022/04/10 01:48:21;;;;;;;3.05;1.90;;;;;;;;;;4926350;29;20099;-60
2022/04/10 01:50:47;;;;;;;3.83;2.03;;;;;;;;;;4927567;29;20078;-60
2022/04/10 01:53:12;;;;;;;3.33;2.10;;;;;;;;;;4922077;29;20351;-61
2022/04/10 01:55:38;;;;;;;6.28;2.17;;;;;;;;;;4927038;29;20058;-61
2022/04/10 01:58:03;;;;;;;3.55;2.00;;;;;;;;;;4924188;29;20313;-61
2022/04/10 02:00:29;;;;;;;4.20;2.00;;;;;;;;;;4924821;29;20107;-61
2022/04/10 02:02:54;;;;;;;3.58;2.03;;;;;;;;;;4923065;29;20032;-61
2022/04/10 02:05:19;;;;;;;3.85;2.05;;;;;;;;;;4924071;29;20083;-61
2022/04/10 02:07:45;;;;;;;3.60;2.00;;;;;;;;;;4924383;29;20039;-61
2022/04/10 02:10:11;;;;;;;2.75;1.73;;;;;;;;;;4927788;29;20027;-59
2022/04/10 02:12:36;;;;;;;4.05;1.92;;;;;;;;;;4922523;29;20068;-61
2022/04/10 02:15:01;;;;;;;3.83;1.80;;;;;;;;;;4924294;29;20044;-61
2022/04/10 02:17:27;;;;;;;3.90;1.70;;;;;;;;;;4922988;29;20392;-61
2022/04/10 02:19:52;;;;;;;2.97;1.92;;;;;;;;;;4926051;29;20031;-60
2022/04/10 02:22:17;;;;;;;2.83;1.70;;;;;;;;;;4925784;29;20043;-60
2022/04/10 02:24:43;;;;;;;5.25;2.10;;;;;;;;;;4925852;29;20079;-60
2022/04/10 02:27:08;;;;;;;3.25;1.85;;;;;;;;;;4927385;29;20058;-67
2022/04/10 02:29:34;;;;;;;3.97;1.98;;;;;;;;;;4924986;29;20048;-66
2022/04/10 02:31:59;;;;;;;3.40;2.00;;;;;;;;;;4920068;29;20036;-67
2022/04/10 02:34:24;;;;;;;3.30;2.00;;;;;;;;;;4923174;29;20055;-67
2022/04/10 02:36:50;;;;;;;3.53;2.15;;;;;;;;;;4922263;29;20028;-66
2022/04/10 02:39:15;;;;;;;3.90;2.42;;;;;;;;;;4924178;29;20036;-68
2022/04/10 02:41:40;;;;;;;3.72;2.17;;;;;;;;;;4925455;29;20052;-67
2022/04/10 02:44:06;;;;;;;6.45;2.25;;;;;;;;;;4919901;29;20262;-66
2022/04/10 02:46:31;;;;;;;3.70;2.35;;;;;;;;;;4927832;29;20036;-67
2022/04/10 02:48:57;;;;;;;3.47;2.13;;;;;;;;;;4922504;29;20039;-67
2022/04/10 02:51:22;;;;;;;3.83;2.08;;;;;;;;;;4926670;29;20028;-52
2022/04/10 02:53:47;;;;;;;5.30;2.20;;;;;;;;;;4924433;29;20036;-61
2022/04/10 02:56:13;;;;;;;4.93;2.85;;;;;;;;;;4926995;29;20309;-63
2022/04/10 02:58:38;;;;;;;6.65;2.30;;;;;;;;;;4925528;29;20119;-61
2022/04/10 03:01:03;;;;;;;2.67;2.08;;;;;;;;;;4927244;29;20083;-68
2022/04/10 03:03:29;;;;;;;2.67;2.10;;;;;;;;;;4928839;29;20047;-68
2022/04/10 03:05:54;;;;;;;4.55;2.28;;;;;;;;;;4924108;29;20032;-69
2022/04/10 03:08:21;;;;;;;3.85;2.20;;;;;;;;;;4924939;29;20016;-67
2022/04/10 03:10:47;;;;;;;2.88;2.15;;;;;;;;;;4929832;29;20070;-68
2022/04/10 03:13:14;;;;;;;6.90;1.85;;;;;;;;;;4932634;29;20035;-69
2022/04/10 03:15:39;;;;;;;5.43;2.50;;;;;;;;;;4931262;29;20103;-68
2022/04/10 03:18:05;;;;;;;5.03;2.22;;;;;;;;;;4929194;29;20039;-68
2022/04/10 03:20:30;;;;;;;3.38;2.33;;;;;;;;;;4928486;29;20395;-68
2022/04/10 03:22:56;;;;;;;3.83;2.15;;;;;;;;;;4930116;29;20091;-69
2022/04/10 03:25:21;;;;;;;4.30;2.58;;;;;;;;;;4929183;29;20027;-69
2022/04/10 03:27:46;;;;;;;3.20;2.35;;;;;;;;;;4928471;29;20028;-68
2022/04/10 03:30:12;;;;;;;6.28;2.33;;;;;;;;;;4928867;29;20028;-59
2022/04/10 03:32:37;;;;;;;3.33;2.20;;;;;;;;;;4927063;29;20035;-60
2022/04/10 03:35:03;;;;;;;4.07;2.10;;;;;;;;;;4927413;29;20047;-60
2022/04/10 03:37:28;;;;;;;5.32;1.98;;;;;;;;;;4928126;29;20058;-60
2022/04/10 03:39:54;;;;;;;2.65;2.15;;;;;;;;;;4924002;29;20056;-63
2022/04/10 03:42:19;;;;;;;4.50;2.08;;;;;;;;;;4928826;29;20344;-61
2022/04/10 03:44:45;;;;;;;3.42;2.15;;;;;;;;;;4923990;29;20095;-64
2022/04/10 03:47:10;;;;;;;3.75;1.92;;;;;;;;;;4927998;29;20024;-62
2022/04/10 03:49:35;;;;;;;4.72;2.05;;;;;;;;;;4930866;29;20110;-61
2022/04/10 03:52:01;;;;;;;5.22;2.35;;;;;;;;;;4928194;29;20102;-64
2022/04/10 03:54:26;;;;;;;5.55;1.95;;;;;;;;;;4928860;29;20036;-61
2022/04/10 03:56:52;;;;;;;6.85;2.53;;;;;;;;;;4923252;29;20070;-63
2022/04/10 03:59:17;;;;;;;3.53;2.10;;;;;;;;;;4931447;29;20042;-60
2022/04/10 04:01:43;;;;;;;4.80;2.22;;;;;;;;;;4928612;29;20056;-62
2022/04/10 04:04:08;;;;;;;3.90;1.85;;;;;;;;;;4928662;29;20035;-64
2022/04/10 04:06:34;;;;;;;4.03;2.13;;;;;;;;;;4927179;29;20032;-61
2022/04/10 04:08:59;;;;;;;7.18;1.90;;;;;;;;;;4927765;29;20063;-63
2022/04/10 04:11:24;;;;;;;5.13;1.80;;;;;;;;;;4929922;29;20054;-61
2022/04/10 04:13:50;;;;;;;3.63;1.88;;;;;;;;;;4928712;29;20024;-60
2022/04/10 04:16:15;;;;;;;3.00;2.00;;;;;;;;;;4930237;29;20126;-60
2022/04/10 04:18:40;;;;;;;5.03;1.80;;;;;;;;;;4928975;29;20099;-62
2022/04/10 04:21:06;;;;;;;4.05;1.85;;;;;;;;;;4927489;29;20035;-60
2022/04/10 04:23:31;;;;;;;6.15;2.00;;;;;;;;;;4929057;29;20058;-61
2022/04/10 04:25:57;;;;;;;5.28;1.80;;;;;;;;;;4926846;29;20063;-61
2022/04/10 04:28:22;;;;;;;4.75;2.03;;;;;;;;;;4923622;29;20258;-60
2022/04/10 04:30:47;;;;;;;3.65;1.88;;;;;;;;;;4929302;29;20039;-61
2022/04/10 04:33:13;;;;;;;4.07;1.90;;;;;;;;;;4927715;29;20454;-60
2022/04/10 04:35:38;;;;;;;4.88;1.90;;;;;;;;;;4928380;29;20023;-61
2022/04/10 04:38:04;;;;;;;7.20;2.05;;;;;;;;;;4927113;29;20036;-61
2022/04/10 04:40:29;;;;;;;2.10;1.40;;;;;;;;;;4926224;29;20040;-60
2022/04/10 04:42:55;;;;;;;3.53;2.08;;;;;;;;;;4926528;29;20147;-59
2022/04/10 04:45:22;;;;;;;3.67;1.95;;;;;;;;;;4929247;29;20032;-70
2022/04/10 04:47:47;;;;;;;3.20;2.00;;;;;;;;;;4925219;29;20038;-68
2022/04/10 04:50:13;;;;;;;3.60;2.10;;;;;;;;;;4929222;29;20280;-60
2022/04/10 04:52:39;;;;;;;4.28;2.28;;;;;;;;;;4926654;29;20124;-60
2022/04/10 04:55:05;;;;;;;3.75;2.05;;;;;;;;;;4922806;29;20051;-59
2022/04/10 04:57:30;;;;;;;10.50;2.00;;;;;;;;;;4924788;29;20055;-59
2022/04/10 04:59:55;;;;;;;6.10;2.53;;;;;;;;;;4930050;29;20031;-62
2022/04/10 05:02:21;;;;;;;2.55;1.67;;;;;;;;;;4924304;29;20032;-61
2022/04/10 05:04:46;;;;;;;4.55;2.55;;;;;;;;;;4928592;29;20032;-55
2022/04/10 05:07:11;;;;;;;2.85;2.00;;;;;;;;;;4923985;29;20028;-56
2022/04/10 05:09:37;;;;;;;3.05;2.03;;;;;;;;;;4924457;29;20087;-56
2022/04/10 05:12:02;;;;;;;6.40;2.13;;;;;;;;;;4927228;29;20020;-58
2022/04/10 05:14:28;;;;;;;2.83;2.13;;;;;;;;;;4929066;29;20064;-54
2022/04/10 05:16:53;;;;;;;3.55;2.00;;;;;;;;;;4927846;29;20024;-56
2022/04/10 05:19:19;;;;;;;2.30;1.70;;;;;;;;;;4929387;29;20333;-56
2022/04/10 05:21:45;;;;;;;2.58;1.77;;;;;;;;;;4925530;29;20032;-54
2022/04/10 05:24:11;;;;;;;3.38;1.80;;;;;;;;;;4924343;29;20032;-54
2022/04/10 05:26:37;;;;;;;5.38;2.25;;;;;;;;;;4927757;29;20028;-53
2022/04/10 05:29:03;;;;;;;2.85;2.10;;;;;;;;;;4926972;29;20040;-53
2022/04/10 05:31:28;;;;;;;4.43;2.17;;;;;;;;;;4923922;29;20047;-49
2022/04/10 05:33:54;;;;;;;5.70;2.53;;;;;;;;;;4926742;29;20058;-51
2022/04/10 05:36:19;;;;;;;4.25;2.30;;;;;;;;;;4927933;29;20043;-53
2022/04/10 05:38:46;;;;;;;6.32;2.70;;;;;;;;;;4928370;29;20060;-54
2022/04/10 05:41:12;;;;;;;5.35;2.28;;;;;;;;;;4944398;29;20051;-50
2022/04/10 05:43:38;;;;;;;4.90;2.28;;;;;;;;;;4928227;29;20340;-53
2022/04/10 05:46:03;;;;;;;7.10;2.30;;;;;;;;;;4925008;29;20080;-56
2022/04/10 05:48:29;;;;;;;6.47;2.47;;;;;;;;;;4927751;29;20111;-55
2022/04/10 05:50:54;;;;;;;4.88;2.40;;;;;;;;;;4928722;29;20028;-56
2022/04/10 05:53:20;;;;;;;3.55;2.25;;;;;;;;;;4939561;29;20265;-54
2022/04/10 05:55:46;;;;;;;3.90;2.38;;;;;;;;;;4925910;29;20028;-54
2022/04/10 05:58:11;;;;;;;4.38;2.47;;;;;;;;;;4927851;29;20308;-54
2022/04/10 06:00:37;;;;;;;3.30;1.98;;;;;;;;;;4928056;29;20044;-57
2022/04/10 06:03:04;;;;;;;3.00;2.08;;;;;;;;;;4925700;29;20063;-58
2022/04/10 06:05:30;;;;;;;3.83;2.03;;;;;;;;;;4926110;29;20224;-57
2022/04/10 06:07:55;;;;;;;5.25;2.00;;;;;;;;;;4923316;29;20047;-58
2022/04/10 06:10:21;;;;;;;5.28;2.13;;;;;;;;;;4925728;29;20054;-57
2022/04/10 06:12:46;;;;;;;3.47;1.80;;;;;;;;;;4927533;29;20087;-57
2022/04/10 06:15:12;;;;;;;3.58;2.30;;;;;;;;;;4922359;29;20095;-57
2022/04/10 06:17:37;;;;;;;5.00;2.20;;;;;;;;;;4924880;29;20038;-59
2022/04/10 06:20:03;;;;;;;3.55;2.15;;;;;;;;;;4923839;29;20042;-58
2022/04/10 06:22:29;;;;;;;3.03;1.77;;;;;;;;;;4924180;29;20107;-57
2022/04/10 06:24:55;;;;;;;6.53;2.13;;;;;;;;;;4919911;29;20036;-57
2022/04/10 06:27:20;;;;;;;4.65;2.00;;;;;;;;;;4926811;29;20035;-58
2022/04/10 06:29:47;;;;;;;3.72;2.20;;;;;;;;;;4926049;29;20035;-64
2022/04/10 06:32:13;;;;;;;5.38;2.10;;;;;;;;;;4928506;29;20047;-66
2022/04/10 06:34:38;;;;;;;5.75;2.95;;;;;;;;;;4924815;29;20056;-57
2022/04/10 06:37:04;;;;;;;3.83;2.00;;;;;;;;;;4923178;29;20036;-59
2022/04/10 06:39:30;;;;;;;2.78;1.90;;;;;;;;;;4921852;29;20036;-59
2022/04/10 06:41:55;;;;;;;5.72;2.25;;;;;;;;;;4928279;29;20048;-56
2022/04/10 06:44:20;;;;;;;6.28;2.80;;;;;;;;;;4923448;29;20032;-55
2022/04/10 06:46:46;;;;;;;5.57;2.20;;;;;;;;;;4924428;29;20032;-60
2022/04/10 06:49:14;;;;;;;5.80;2.20;;;;;;;;;;4925159;29;20028;-59
2022/04/10 06:51:40;;;;;;;3.75;2.60;;;;;;;;;;4924854;29;20224;-60
2022/04/10 06:54:07;;;;;;;3.97;2.45;;;;;;;;;;4925272;29;20043;-60
2022/04/10 06:56:32;;;;;;;3.83;2.33;;;;;;;;;;4922823;29;20031;-58
2022/04/10 06:58:58;;;;;;;5.68;2.40;;;;;;;;;;4926335;29;20032;-59
2022/04/10 07:01:23;;;;;;;4.15;2.22;;;;;;;;;;4926219;29;20324;-60
2022/04/10 07:03:48;;;;;;;4.22;2.20;;;;;;;;;;4924664;29;20125;-58
2022/04/10 07:06:14;;;;;;;5.65;2.38;;;;;;;;;;4924796;29;20047;-59
2022/04/10 07:08:39;;;;;;;5.85;2.25;;;;;;;;;;4925502;29;20129;-61
2022/04/10 07:11:05;;;;;;;3.40;1.98;;;;;;;;;;4927230;29;20095;-61
2022/04/10 07:13:30;;;;;;;6.82;2.42;;;;;;;;;;4926844;29;20036;-60
2022/04/10 07:15:56;;;;;;;7.35;2.35;;;;;;;;;;4922569;29;20028;-63
2022/04/10 07:18:21;;;;;;;4.88;2.13;;;;;;;;;;4927348;29;20111;-61
2022/04/10 07:20:47;;;;;;;5.75;2.45;;;;;;;;;;4921627;29;20152;-60
2022/04/10 07:25:57;;;;;;;6.57;2.40;;;;;;;;;;4920648;29;20032;-58
2022/04/10 07:28:22;;;;;;;4.50;2.70;;;;;;;;;;4925437;29;20048;-57
2022/04/10 07:30:48;;;;;;;6.00;2.38;;;;;;;;;;4924922;29;20134;-60
2022/04/10 07:33:14;;;;;;;4.57;2.10;;;;;;;;;;4924411;29;20036;-61
2022/04/10 07:35:40;;;;;;;3.00;2.28;;;;;;;;;;4922408;29;20032;-57
2022/04/10 07:38:06;;;;;;;4.78;2.42;;;;;;;;;;4924474;29;20059;-59
2022/04/10 07:40:32;;;;;;;3.58;2.25;;;;;;;;;;4925492;29;20036;-61
2022/04/10 07:42:59;;;;;;;5.45;2.30;;;;;;;;;;4922141;29;20055;-59
2022/04/10 07:48:08;;;;;;;5.32;2.30;;;;;;;;;;4923774;29;20103;-58
2022/04/10 07:50:34;;;;;;;6.97;2.50;;;;;;;;;;4923219;29;20297;-58
2022/04/10 07:52:59;;;;;;;4.45;2.20;;;;;;;;;;4922380;29;20264;-56
2022/04/10 07:55:27;;;;;;;4.40;2.20;;;;;;;;;;4924499;29;20327;-59
2022/04/10 07:57:54;;;;;;;4.93;2.67;;;;;;;;;;4924522;29;20047;-58
2022/04/10 08:00:19;;;;;;;5.95;2.35;;;;;;;;;;4929365;29;20032;-57
2022/04/10 08:02:48;;;;;;;7.28;2.63;;;;;;;;;;4925698;29;20319;-54
2022/04/10 08:05:15;;;;;;;7.20;2.25;;;;;;;;;;4928976;29;20036;-57
2022/04/10 08:07:42;;;;;;;4.35;2.38;;;;;;;;;;4927994;29;20031;-59
2022/04/10 08:10:08;;;;;;;4.57;2.33;;;;;;;;;;4928918;29;20024;-56
2022/04/10 08:12:33;;;;;;;3.53;2.30;;;;;;;;;;4929329;29;20143;-58
2022/04/10 08:14:59;;;;;;;4.53;2.30;;;;;;;;;;4928066;29;20094;-58
2022/04/10 08:17:24;;;;;;;5.03;2.33;;;;;;;;;;4933840;29;20104;-58
2022/04/10 08:19:50;;;;;;;4.75;2.30;;;;;;;;;;4925841;29;20342;-54
2022/04/10 08:22:23;;;;;;;4.32;2.13;;;;;;;;;;4929297;29;20028;-57
2022/04/10 08:24:48;;;;;;;5.05;2.10;;;;;;;;;;4926544;29;20032;-60
2022/04/10 08:27:13;;;;;;;7.00;2.50;;;;;;;;;;4930924;29;20028;-56
2022/04/10 08:29:39;;;;;;;4.38;2.30;;;;;;;;;;4927041;29;20036;-57
2022/04/10 08:32:05;;;;;;;4.78;2.28;;;;;;;;;;4926581;29;20044;-58
2022/04/10 08:34:30;;;;;;;4.13;1.90;;;;;;;;;;4926054;29;20059;-61
2022/04/10 08:36:56;;;;;;;4.82;2.40;;;;;;;;;;4927882;29;20047;-56
2022/04/10 08:39:23;;;;;;;4.70;2.17;;;;;;;;;;4928333;29;20104;-60
2022/04/10 08:41:51;;;;;;;2.85;1.92;;;;;;;;;;4927945;29;20118;-57
2022/04/10 08:44:16;;;;;;;5.00;2.10;;;;;;;;;;4927718;29;20202;-55
2022/04/10 08:46:45;;;;;;;4.75;2.60;;;;;;;;;;4925872;29;20075;-57
2022/04/10 08:49:10;;;;;;;4.22;2.05;;;;;;;;;;4931406;29;20055;-59
2022/04/10 08:51:37;;;;;;;2.90;2.40;;;;;;;;;;4927000;29;20206;-56
2022/04/10 08:54:03;;;;;;;6.00;2.30;;;;;;;;;;4926680;29;20027;-58
2022/04/10 08:56:28;;;;;;;7.40;2.47;;;;;;;;;;4924406;29;20032;-58
2022/04/10 08:58:53;;;;;;;3.90;2.03;;;;;;;;;;4926675;29;20212;-59
2022/04/10 09:01:22;;;;;;;2.70;2.03;;;;;;;;;;4929102;29;20032;-58
2022/04/10 09:03:47;;;;;;;2.45;1.95;;;;;;;;;;4926048;29;20091;-59
2022/04/10 09:06:13;;;;;;;3.17;2.15;;;;;;;;;;4925928;29;20024;-59
2022/04/10 09:08:39;;;;;;;3.60;1.90;;;;;;;;;;4927477;29;20024;-58
2022/04/10 09:11:08;;;;;;;3.88;1.60;;;;;;;;;;4926944;29;20064;-59
2022/04/10 09:13:38;;;;;;;3.65;1.65;;;;;;;;;;4922884;29;20099;-61
2022/04/10 09:16:14;;;;;;;3.78;1.65;;;;;;;;;;4924264;29;20044;-57
2022/04/10 09:18:49;;;;;;;3.83;2.08;;;;;;;;;;4925494;29;20039;-59
2022/04/10 09:21:15;;;;;;;5.05;1.88;;;;;;;;;;4925541;29;20039;-58
2022/04/10 09:23:45;;;;;;;6.03;1.63;;;;;;;;;;4923405;29;20132;-56
2022/04/10 09:26:11;;;;;;;5.15;1.73;;;;;;;;;;4927765;29;20440;-59
2022/04/10 09:28:44;;;;;;;4.57;1.90;;;;;;;;;;4924690;29;20032;-55
2022/04/10 09:31:26;;;;;;;3.53;1.27;;;;;;;;;;4927670;29;20039;-58
2022/04/10 09:33:54;;;;;;;2.70;1.50;;;;;;;;;;4923296;29;20200;-57
2022/04/10 09:36:37;;;;;;;2.78;1.70;;;;;;;;;;4924115;29;20106;-57
2022/04/10 09:39:09;;;;;;;4.95;1.95;;;;;;;;;;4925379;29;20075;-58
2022/04/10 09:41:34;;;;;;;4.63;1.90;;;;;;;;;;4925893;29;20050;-57
2022/04/10 09:44:12;;;;;;;5.35;2.30;;;;;;;;;;4925269;29;20063;-57
2022/04/10 09:46:38;;;;;;;4.53;2.00;;;;;;;;;;4926403;29;20103;-56
2022/04/10 09:49:05;;;;;;;2.55;1.77;;;;;;;;;;4927127;29;20040;-56
2022/04/10 09:51:30;;;;;;;5.25;1.67;;;;;;;;;;4925441;29;20040;-55
2022/04/10 09:54:04;;;;;;;6.68;1.60;;;;;;;;;;4929248;29;20063;-56
2022/04/10 09:56:30;;;;;;;4.40;1.92;;;;;;;;;;4923794;29;20059;-56
2022/04/10 09:58:58;;;;;;;5.07;2.45;;;;;;;;;;4927728;29;20028;-58
2022/04/10 10:01:28;;;;;;;3.70;1.80;;;;;;;;;;4921073;29;20129;-56
2022/04/10 10:03:57;;;;;;;4.25;1.60;;;;;;;;;;4925455;29;20032;-57
2022/04/10 10:06:24;;;;;;;3.72;1.50;;;;;;;;;;4923684;29;20028;-59
2022/04/10 10:08:49;;;;;;;2.85;1.50;;;;;;;;;;4921976;29;20285;-60
2022/04/10 10:11:16;;;;;;;3.72;1.50;;;;;;;;;;4921025;29;20040;-60
2022/04/10 10:13:41;;;;;;;2.95;1.42;;;;;;;;;;4919227;29;20099;-58
2022/04/10 10:16:07;;;;;;;4.85;1.80;;;;;;;;;;4927194;29;20039;-57
2022/04/10 10:18:33;;;;;;;6.03;1.75;;;;;;;;;;4924709;29;20221;-58
2022/04/10 10:20:58;;;;;;;2.63;1.50;;;;;;;;;;4925492;29;20035;-60
2022/04/10 10:23:26;;;;;;;3.38;1.48;;;;;;;;;;4925842;29;20115;-59
2022/04/10 10:25:52;;;;;;;5.75;1.70;;;;;;;;;;4923810;29;20286;-60
2022/04/10 10:28:32;;;;;;;3.25;1.55;;;;;;;;;;4927158;29;20031;-58
2022/04/10 10:31:23;;;;;;;3.80;1.45;;;;;;;;;;4926952;29;20032;-59
2022/04/10 10:33:58;;;;;;;3.88;1.48;;;;;;;;;;4921111;29;20024;-58
2022/04/10 10:36:26;;;;;;;3.83;1.45;;;;;;;;;;4923029;29;20031;-56
2022/04/10 10:38:53;;;;;;;6.55;1.55;;;;;;;;;;4924334;29;20260;-59
2022/04/10 10:41:18;;;;;;;6.28;1.50;;;;;;;;;;4924256;29;20217;-59
2022/04/10 10:43:47;;;;;;;4.40;1.55;;;;;;;;;;4923945;29;20050;-58
2022/04/10 10:46:32;;;;;;;4.03;1.60;;;;;;;;;;4924717;29;20032;-58
2022/04/10 10:49:16;;;;;;;1.92;1.27;;;;;;;;;;4921001;29;20032;-58
2022/04/10 10:51:42;;;;;;;7.18;2.00;;;;;;;;;;4924022;29;20051;-59
2022/04/10 10:54:11;;;;;;;4.13;1.38;;;;;;;;;;4925384;29;20038;-58
2022/04/10 10:56:40;;;;;;;5.25;1.40;;;;;;;;;;4926294;29;20051;-56
2022/04/10 10:59:24;;;;;;;2.85;1.40;;;;;;;;;;4926996;29;20046;-55
2022/04/10 11:02:11;;;;;;;4.75;1.50;;;;;;;;;;4918972;29;20082;-57
2022/04/10 11:04:45;;;;;;;2.85;1.55;;;;;;;;;;4925753;29;20036;-56
2022/04/10 11:07:19;;;;;;;4.97;1.65;;;;;;;;;;4924618;29;20040;-62
2022/04/10 11:10:09;;;;;;;4.03;1.80;;;;;;;;;;4923285;29;20039;-58
2022/04/10 11:12:37;;;;;;;4.57;2.30;;;;;;;;;;4921298;29;20080;-57
2022/04/10 11:15:11;;;;;;;3.05;1.75;;;;;;;;;;4923045;29;20031;-59
2022/04/10 11:17:37;;;;;;;4.68;1.80;;;;;;;;;;4927874;29;20561;-56
2022/04/10 11:20:05;;;;;;;4.07;1.40;;;;;;;;;;4925483;29;20079;-59
2022/04/10 11:22:33;;;;;;;2.50;1.10;;;;;;;;;;4923127;29;20028;-60
2022/04/10 11:25:00;;;;;;;3.25;1.30;;;;;;;;;;4924787;29;20144;-59
2022/04/10 11:27:44;;;;;;;2.53;1.25;;;;;;;;;;4925332;29;20075;-58
2022/04/10 11:30:13;;;;;;;;;;;;;;;;;;4927786;29;20190;-55
2022/04/10 11:32:49;;;;;;;4.80;2.00;;;;;;;;;;4929065;29;19915;-58
2022/04/10 11:35:17;;;;;;;5.20;2.05;;;;;;;;;;4926003;29;20039;-58
2022/04/10 11:37:47;;;;;;;5.00;1.73;;;;;;;;;;4926147;29;20020;-58
2022/04/10 11:40:16;;;;;;;3.78;1.90;;;;;;;;;;4929213;29;20075;-57
2022/04/10 11:42:42;;;;;;;5.47;1.90;;;;;;;;;;4925639;29;20104;-58
2022/04/10 11:45:09;;;;;;;2.03;1.50;;;;;;;;;;4930687;29;20035;-58
2022/04/10 11:47:35;;;;;;;5.07;1.80;;;;;;;;;;4930498;29;20035;-57
2022/04/10 11:50:01;;;;;;;4.00;1.60;;;;;;;;;;4928861;29;20040;-58
2022/04/10 11:52:26;;;;;;;4.70;2.00;;;;;;;;;;4930144;29;20032;-59
2022/04/10 11:54:51;;;;;;;5.40;1.90;;;;;;;;;;4931484;29;20308;-57
2022/04/10 11:57:17;;;;;;;2.80;1.67;;;;;;;;;;4929917;29;20568;-56
2022/04/10 11:59:43;;;;;;;4.40;1.88;;;;;;;;;;4926729;29;20028;-57
2022/04/10 12:02:10;;;;;;;6.70;1.80;;;;;;;;;;4928140;29;20096;-58
2022/04/10 12:04:36;;;;;;;3.88;1.80;;;;;;;;;;4928466;29;20040;-57
2022/04/10 12:07:19;;;;;;;6.78;1.80;;;;;;;;;;4920151;29;20123;-58
2022/04/10 12:09:52;;;;;;;3.08;1.63;;;;;;;;;;4920550;29;20051;-58
2022/04/10 12:12:20;;;;;;;4.57;1.77;;;;;;;;;;4922615;29;20321;-57
2022/04/10 12:14:47;;;;;;;4.20;1.75;;;;;;;;;;4924936;29;20063;-58
2022/04/10 12:17:17;;;;;;;5.43;2.42;;;;;;;;;;4923369;29;20024;-61
2022/04/10 12:19:43;;;;;;;5.53;1.85;;;;;;;;;;4924462;29;20206;-60
2022/04/10 12:22:09;;;;;;;3.50;1.77;;;;;;;;;;4921528;29;20115;-59
2022/04/10 12:24:36;;;;;;;4.00;1.92;;;;;;;;;;4929191;29;20038;-57
2022/04/10 12:27:05;;;;;;;3.60;1.88;;;;;;;;;;4925641;29;20027;-59
2022/04/10 12:29:33;;;;;;;5.40;1.58;;;;;;;;;;4926886;29;20092;-59
2022/04/10 12:31:59;;;;;;;2.70;1.60;;;;;;;;;;4928704;29;20032;-57
2022/04/10 12:34:31;;;;;;;3.08;1.55;;;;;;;;;;4922026;29;20095;-58
2022/04/10 12:37:06;;;;;;;4.32;2.08;;;;;;;;;;4929140;29;20036;-57
2022/04/10 12:39:31;;;;;;;3.42;1.90;;;;;;;;;;4925137;29;20035;-58
2022/04/10 12:42:07;;;;;;;4.18;1.80;;;;;;;;;;4925140;29;20099;-60
2022/04/10 12:44:33;;;;;;;5.18;1.90;;;;;;;;;;4940137;29;20044;-59
2022/04/10 12:46:59;;;;;;;3.10;1.70;;;;;;;;;;4925636;29;20052;-60
2022/04/10 12:49:24;;;;;;;4.68;2.00;;;;;;;;;;4927168;29;20031;-58
2022/04/10 12:51:55;;;;;;;7.47;2.10;;;;;;;;;;4928102;29;20028;-57
2022/04/10 12:54:40;;;;;;;3.80;1.73;;;;;;;;;;4926435;29;20083;-57
2022/04/10 12:57:09;;;;;;;6.68;2.00;;;;;;;;;;4927648;29;20343;-60
2022/04/10 12:59:38;;;;;;;4.93;1.80;;;;;;;;;;4926988;29;20040;-60
2022/04/10 13:02:09;;;;;;;3.05;2.20;;;;;;;;;;4923287;29;20104;-59
2022/04/10 13:04:35;;;;;;;3.33;1.65;;;;;;;;;;4923617;29;20084;-58
2022/04/10 13:07:01;;;;;;;3.58;1.70;;;;;;;;;;4925057;29;20035;-55
2022/04/10 13:09:26;;;;;;;2.45;1.50;;;;;;;;;;4922649;29;20059;-58
2022/04/10 13:11:53;;;;;;;2.88;1.50;;;;;;;;;;4922213;29;20035;-57
2022/04/10 13:14:19;;;;;;;2.88;1.85;;;;;;;;;;4918577;29;20102;-58
2022/04/10 13:16:52;;;;;;;4.40;1.70;;;;;;;;;;4923632;29;20059;-58
2022/04/10 13:19:18;;;;;;;3.80;1.48;;;;;;;;;;4926584;29;20055;-56
2022/04/10 13:21:45;;;;;;;6.55;1.70;;;;;;;;;;4923890;29;20325;-58
2022/04/10 13:24:12;;;;;;;5.47;1.88;;;;;;;;;;4921201;29;20211;-59
2022/04/10 13:26:39;;;;;;;4.50;1.80;;;;;;;;;;4925107;29;20244;-58
2022/04/10 13:29:07;;;;;;;6.35;2.55;;;;;;;;;;4921007;29;20036;-60
2022/04/10 13:31:32;;;;;;;4.65;1.70;;;;;;;;;;4925033;29;20206;-61
2022/04/10 13:33:58;;;;;;;3.00;1.55;;;;;;;;;;4926852;29;20036;-60
2022/04/10 13:36:24;;;;;;;2.97;1.55;;;;;;;;;;4923680;29;20059;-59
2022/04/10 13:38:49;;;;;;;3.22;1.90;;;;;;;;;;4923816;29;20028;-57
2022/04/10 13:41:15;;;;;;;4.13;1.60;;;;;;;;;;4926605;29;20051;-59
2022/04/10 13:43:41;;;;;;;4.28;1.88;;;;;;;;;;4926229;29;20040;-59
2022/04/10 13:46:06;;;;;;;3.05;1.85;;;;;;;;;;4920652;29;20060;-58
2022/04/10 13:48:32;;;;;;;3.10;1.52;;;;;;;;;;4922634;29;20071;-58
2022/04/10 13:50:58;;;;;;;2.88;1.50;;;;;;;;;;4923655;29;20040;-58
2022/04/10 13:53:23;;;;;;;3.78;1.75;;;;;;;;;;4920642;29;20032;-58
2022/04/10 13:55:49;;;;;;;3.55;1.65;;;;;;;;;;4920992;29;20032;-57
2022/04/10 13:58:14;;;;;;;4.05;1.60;;;;;;;;;;4887475;29;1093831;-58
2022/04/10 14:00:40;;;;;;;2.03;1.40;;;;;;;;;;4922875;29;20036;-59
2022/04/10 14:03:06;;;;;;;2.15;1.40;;;;;;;;;;4923047;29;20163;-58
2022/04/10 14:05:32;;;;;;;3.65;1.55;;;;;;;;;;4924054;29;20103;-58
2022/04/10 14:07:57;;;;;;;2.95;1.50;;;;;;;;;;4921332;29;20031;-57
2022/04/10 14:10:22;;;;;;;2.85;1.50;;;;;;;;;;4927228;29;20140;-58
2022/04/10 14:12:48;;;;;;;3.67;1.42;;;;;;;;;;4927591;29;20051;-57
2022/04/10 14:15:14;;;;;;;3.80;1.60;;;;;;;;;;4924228;29;20186;-57
2022/04/10 14:17:39;;;;;;;3.38;1.52;;;;;;;;;;4924053;29;20127;-57
2022/04/10 14:20:06;;;;;;;3.22;1.45;;;;;;;;;;4919897;29;20352;-58
2022/04/10 14:22:31;;;;;;;4.32;1.50;;;;;;;;;;4924674;29;20039;-58
2022/04/10 14:24:57;;;;;;;2.60;1.35;;;;;;;;;;4924888;29;20032;-59
2022/04/10 14:27:22;;;;;;;4.63;1.90;;;;;;;;;;4927612;29;20038;-60
2022/04/10 14:29:47;;;;;;;4.63;1.70;;;;;;;;;;4922827;29;20035;-57
2022/04/10 14:32:13;;;;;;;1.85;1.50;;;;;;;;;;4923903;29;20093;-57
2022/04/10 14:34:39;;;;;;;2.92;1.42;;;;;;;;;;4925346;29;20115;-59
2022/04/10 14:37:05;;;;;;;3.47;1.27;;;;;;;;;;4926515;29;20040;-59
2022/04/10 14:39:31;;;;;;;3.67;1.40;;;;;;;;;;4924246;29;20050;-57
2022/04/10 14:41:57;;;;;;;5.85;1.58;;;;;;;;;;4922547;29;20359;-60
2022/04/10 14:44:23;;;;;;;3.70;1.38;;;;;;;;;;4920087;29;20040;-58
2022/04/10 14:46:48;;;;;;;3.88;1.40;;;;;;;;;;4921634;29;20039;-59